sensor_id;sensor_type;location;lat;lon;timestamp;P1;durP1;ratioP1;P2;durP2;ratioP2
34836;SDS011;21053;50.848;4.652;2023-06-22T00:01:17;0.70;;;0.70;;
34836;SDS011;21053;50.848;4.652;2023-06-22T00:03:43;5.55;;;1.00;;
34836;SDS011;21053;50.848;4.652;2023-06-22T00:06:09;1.38;;;1.27;;
34836;SDS011;21053;50.848;4.652;2023-06-22T00:08:36;2.13;;;1.33;;
34836;SDS011;21053;50.848;4.652;2023-06-22T00:18:31;0.60;;;0.60;;
34836;SDS011;21053;50.848;4.652;2023-06-22T00:20:58;3.28;;;1.15;;
34836;SDS011;21053;50.848;4.652;2023-06-22T00:23:37;0.77;;;0.77;;
34836;SDS011;21053;50.848;4.652;2023-06-22T00:26:05;1.38;;;0.77;;
34836;SDS011;21053;50.848;4.652;2023-06-22T00:31:03;0.77;;;0.77;;
34836;SDS011;21053;50.848;4.652;2023-06-22T00:33:30;0.80;;;0.80;;
34836;SDS011;21053;50.848;4.652;2023-06-22T00:35:58;0.52;;;0.52;;
34836;SDS011;21053;50.848;4.652;2023-06-22T00:40:56;0.88;;;0.88;;
34836;SDS011;21053;50.848;4.652;2023-06-22T00:45:51;0.95;;;0.85;;
34836;SDS011;21053;50.848;4.652;2023-06-22T00:48:19;1.73;;;1.02;;
34836;SDS011;21053;50.848;4.652;2023-06-22T00:50:48;0.65;;;0.65;;
34836;SDS011;21053;50.848;4.652;2023-06-22T00:53:17;1.90;;;1.15;;
34836;SDS011;21053;50.848;4.652;2023-06-22T00:55:45;0.88;;;0.75;;
34836;SDS011;21053;50.848;4.652;2023-06-22T00:58:12;0.70;;;0.70;;
34836;SDS011;21053;50.848;4.652;2023-06-22T01:00:39;1.15;;;0.88;;
34836;SDS011;21053;50.848;4.652;2023-06-22T01:03:06;1.80;;;1.13;;
34836;SDS011;21053;50.848;4.652;2023-06-22T01:05:35;0.93;;;0.93;;
34836;SDS011;21053;50.848;4.652;2023-06-22T01:08:14;1.60;;;1.50;;
34836;SDS011;21053;50.848;4.652;2023-06-22T01:10:54;0.75;;;0.75;;
34836;SDS011;21053;50.848;4.652;2023-06-22T01:13:35;0.77;;;0.77;;
34836;SDS011;21053;50.848;4.652;2023-06-22T01:30:34;0.70;;;0.70;;
34836;SDS011;21053;50.848;4.652;2023-06-22T01:33:01;0.70;;;0.70;;
34836;SDS011;21053;50.848;4.652;2023-06-22T01:35:33;1.95;;;1.20;;
34836;SDS011;21053;50.848;4.652;2023-06-22T01:40:31;1.58;;;0.88;;
34836;SDS011;21053;50.848;4.652;2023-06-22T01:47:58;0.70;;;0.70;;
34836;SDS011;21053;50.848;4.652;2023-06-22T01:53:00;1.30;;;1.20;;
34836;SDS011;21053;50.848;4.652;2023-06-22T01:57:57;10.00;;;1.05;;
34836;SDS011;21053;50.848;4.652;2023-06-22T02:00:25;0.75;;;0.75;;
34836;SDS011;21053;50.848;4.652;2023-06-22T02:05:34;0.70;;;0.70;;
34836;SDS011;21053;50.848;4.652;2023-06-22T02:08:13;0.90;;;0.82;;
34836;SDS011;21053;50.848;4.652;2023-06-22T02:10:45;9.63;;;1.27;;
34836;SDS011;21053;50.848;4.652;2023-06-22T02:13:16;4.38;;;1.40;;
34836;SDS011;21053;50.848;4.652;2023-06-22T02:15:43;1.30;;;1.20;;
34836;SDS011;21053;50.848;4.652;2023-06-22T02:18:12;1.90;;;1.40;;
34836;SDS011;21053;50.848;4.652;2023-06-22T02:20:40;2.55;;;1.30;;
34836;SDS011;21053;50.848;4.652;2023-06-22T02:23:07;1.85;;;0.85;;
34836;SDS011;21053;50.848;4.652;2023-06-22T02:25:34;0.90;;;0.90;;
34836;SDS011;21053;50.848;4.652;2023-06-22T02:30:31;1.10;;;0.93;;
34836;SDS011;21053;50.848;4.652;2023-06-22T02:32:58;0.65;;;0.65;;
34836;SDS011;21053;50.848;4.652;2023-06-22T02:35:27;5.63;;;2.17;;
34836;SDS011;21053;50.848;4.652;2023-06-22T02:38:00;0.55;;;0.55;;
34836;SDS011;21053;50.848;4.652;2023-06-22T02:40:29;1.63;;;1.27;;
34836;SDS011;21053;50.848;4.652;2023-06-22T02:42:58;4.78;;;1.23;;
34836;SDS011;21053;50.848;4.652;2023-06-22T02:47:56;1.05;;;0.95;;
34836;SDS011;21053;50.848;4.652;2023-06-22T02:52:54;0.93;;;0.93;;
34836;SDS011;21053;50.848;4.652;2023-06-22T02:55:21;2.35;;;1.55;;
34836;SDS011;21053;50.848;4.652;2023-06-22T02:57:50;0.98;;;0.90;;
34836;SDS011;21053;50.848;4.652;2023-06-22T03:00:19;2.83;;;1.67;;
34836;SDS011;21053;50.848;4.652;2023-06-22T03:05:15;1.00;;;0.90;;
34836;SDS011;21053;50.848;4.652;2023-06-22T03:07:44;1.48;;;1.25;;
34836;SDS011;21053;50.848;4.652;2023-06-22T03:10:12;1.85;;;1.45;;
34836;SDS011;21053;50.848;4.652;2023-06-22T03:12:40;3.97;;;1.27;;
34836;SDS011;21053;50.848;4.652;2023-06-22T03:15:12;13.93;;;1.40;;
34836;SDS011;21053;50.848;4.652;2023-06-22T03:17:39;0.77;;;0.77;;
34836;SDS011;21053;50.848;4.652;2023-06-22T03:20:13;1.70;;;1.60;;
34836;SDS011;21053;50.848;4.652;2023-06-22T03:22:40;1.05;;;0.95;;
34836;SDS011;21053;50.848;4.652;2023-06-22T03:25:09;2.53;;;1.48;;
34836;SDS011;21053;50.848;4.652;2023-06-22T03:27:37;1.08;;;0.98;;
34836;SDS011;21053;50.848;4.652;2023-06-22T03:30:04;0.95;;;0.90;;
34836;SDS011;21053;50.848;4.652;2023-06-22T03:32:33;1.38;;;1.20;;
34836;SDS011;21053;50.848;4.652;2023-06-22T03:34:58;0.82;;;0.82;;
34836;SDS011;21053;50.848;4.652;2023-06-22T03:37:30;8.70;;;1.67;;
34836;SDS011;21053;50.848;4.652;2023-06-22T03:39:59;1.40;;;0.95;;
34836;SDS011;21053;50.848;4.652;2023-06-22T03:44:53;0.95;;;0.95;;
34836;SDS011;21053;50.848;4.652;2023-06-22T03:47:25;1.08;;;0.95;;
34836;SDS011;21053;50.848;4.652;2023-06-22T03:49:52;5.35;;;2.28;;
34836;SDS011;21053;50.848;4.652;2023-06-22T03:54:50;2.95;;;1.70;;
34836;SDS011;21053;50.848;4.652;2023-06-22T03:59:45;1.88;;;1.45;;
34836;SDS011;21053;50.848;4.652;2023-06-22T04:02:10;1.17;;;1.08;;
34836;SDS011;21053;50.848;4.652;2023-06-22T04:04:37;1.48;;;1.13;;
34836;SDS011;21053;50.848;4.652;2023-06-22T04:07:07;0.70;;;0.70;;
34836;SDS011;21053;50.848;4.652;2023-06-22T04:09:34;4.82;;;1.75;;
34836;SDS011;21053;50.848;4.652;2023-06-22T04:12:01;1.70;;;1.60;;
34836;SDS011;21053;50.848;4.652;2023-06-22T04:14:27;1.45;;;1.35;;
34836;SDS011;21053;50.848;4.652;2023-06-22T04:16:54;2.83;;;1.48;;
34836;SDS011;21053;50.848;4.652;2023-06-22T04:19:23;1.50;;;1.35;;
34836;SDS011;21053;50.848;4.652;2023-06-22T04:21:50;1.40;;;1.30;;
34836;SDS011;21053;50.848;4.652;2023-06-22T04:24:19;0.82;;;0.82;;
34836;SDS011;21053;50.848;4.652;2023-06-22T04:26:46;3.20;;;1.20;;
34836;SDS011;21053;50.848;4.652;2023-06-22T04:29:12;1.23;;;1.10;;
34836;SDS011;21053;50.848;4.652;2023-06-22T04:31:40;1.60;;;1.33;;
34836;SDS011;21053;50.848;4.652;2023-06-22T04:34:09;1.48;;;1.38;;
34836;SDS011;21053;50.848;4.652;2023-06-22T04:36:40;1.20;;;1.10;;
34836;SDS011;21053;50.848;4.652;2023-06-22T04:39:07;0.80;;;0.80;;
34836;SDS011;21053;50.848;4.652;2023-06-22T04:41:36;0.80;;;0.80;;
34836;SDS011;21053;50.848;4.652;2023-06-22T04:46:36;1.33;;;1.23;;
34836;SDS011;21053;50.848;4.652;2023-06-22T04:49:06;0.82;;;0.82;;
34836;SDS011;21053;50.848;4.652;2023-06-22T04:51:43;1.48;;;1.25;;
34836;SDS011;21053;50.848;4.652;2023-06-22T04:54:10;1.30;;;1.10;;
34836;SDS011;21053;50.848;4.652;2023-06-22T04:56:39;1.98;;;1.45;;
34836;SDS011;21053;50.848;4.652;2023-06-22T04:59:06;0.73;;;0.73;;
34836;SDS011;21053;50.848;4.652;2023-06-22T05:01:35;1.45;;;1.35;;
34836;SDS011;21053;50.848;4.652;2023-06-22T05:04:01;0.95;;;0.95;;
34836;SDS011;21053;50.848;4.652;2023-06-22T05:06:29;0.98;;;0.98;;
34836;SDS011;21053;50.848;4.652;2023-06-22T05:11:26;1.38;;;1.25;;
34836;SDS011;21053;50.848;4.652;2023-06-22T05:16:24;1.27;;;1.17;;
34836;SDS011;21053;50.848;4.652;2023-06-22T05:18:51;1.45;;;1.35;;
34836;SDS011;21053;50.848;4.652;2023-06-22T05:21:22;1.63;;;1.23;;
34836;SDS011;21053;50.848;4.652;2023-06-22T05:23:50;2.88;;;1.45;;
34836;SDS011;21053;50.848;4.652;2023-06-22T05:26:18;1.75;;;1.33;;
34836;SDS011;21053;50.848;4.652;2023-06-22T05:28:46;1.88;;;1.63;;
34836;SDS011;21053;50.848;4.652;2023-06-22T05:31:15;4.38;;;1.40;;
34836;SDS011;21053;50.848;4.652;2023-06-22T05:33:49;1.15;;;1.00;;
34836;SDS011;21053;50.848;4.652;2023-06-22T05:36:17;2.05;;;1.48;;
34836;SDS011;21053;50.848;4.652;2023-06-22T05:38:49;1.38;;;1.13;;
34836;SDS011;21053;50.848;4.652;2023-06-22T05:41:15;1.90;;;1.23;;
34836;SDS011;21053;50.848;4.652;2023-06-22T05:43:44;1.58;;;1.48;;
34836;SDS011;21053;50.848;4.652;2023-06-22T05:46:10;4.15;;;2.08;;
34836;SDS011;21053;50.848;4.652;2023-06-22T05:48:43;1.45;;;1.33;;
34836;SDS011;21053;50.848;4.652;2023-06-22T05:51:09;1.70;;;1.27;;
34836;SDS011;21053;50.848;4.652;2023-06-22T05:53:38;1.27;;;1.17;;
34836;SDS011;21053;50.848;4.652;2023-06-22T05:56:05;1.65;;;1.50;;
34836;SDS011;21053;50.848;4.652;2023-06-22T06:03:30;5.20;;;1.83;;
34836;SDS011;21053;50.848;4.652;2023-06-22T06:08:24;2.00;;;1.83;;
34836;SDS011;21053;50.848;4.652;2023-06-22T06:10:50;1.98;;;1.70;;
34836;SDS011;21053;50.848;4.652;2023-06-22T06:13:18;1.30;;;1.20;;
34836;SDS011;21053;50.848;4.652;2023-06-22T06:15:47;2.92;;;1.48;;
34836;SDS011;21053;50.848;4.652;2023-06-22T06:18:13;1.25;;;1.15;;
34836;SDS011;21053;50.848;4.652;2023-06-22T06:20:40;1.40;;;1.33;;
34836;SDS011;21053;50.848;4.652;2023-06-22T06:23:07;1.85;;;1.50;;
34836;SDS011;21053;50.848;4.652;2023-06-22T06:25:35;2.15;;;1.33;;
34836;SDS011;21053;50.848;4.652;2023-06-22T06:28:01;2.83;;;1.90;;
34836;SDS011;21053;50.848;4.652;2023-06-22T06:30:27;2.78;;;2.05;;
34836;SDS011;21053;50.848;4.652;2023-06-22T06:32:53;1.70;;;1.38;;
34836;SDS011;21053;50.848;4.652;2023-06-22T06:35:20;1.58;;;1.45;;
34836;SDS011;21053;50.848;4.652;2023-06-22T06:37:48;5.82;;;2.35;;
34836;SDS011;21053;50.848;4.652;2023-06-22T06:40:16;3.47;;;2.20;;
34836;SDS011;21053;50.848;4.652;2023-06-22T06:42:49;1.95;;;1.85;;
34836;SDS011;21053;50.848;4.652;2023-06-22T06:45:15;3.17;;;1.83;;
34836;SDS011;21053;50.848;4.652;2023-06-22T06:47:48;2.15;;;1.67;;
34836;SDS011;21053;50.848;4.652;2023-06-22T06:52:45;2.67;;;2.20;;
34836;SDS011;21053;50.848;4.652;2023-06-22T06:57:41;2.08;;;1.88;;
34836;SDS011;21053;50.848;4.652;2023-06-22T07:00:09;4.50;;;2.15;;
34836;SDS011;21053;50.848;4.652;2023-06-22T07:02:44;5.47;;;2.38;;
34836;SDS011;21053;50.848;4.652;2023-06-22T07:05:11;1.67;;;1.58;;
34836;SDS011;21053;50.848;4.652;2023-06-22T07:07:37;1.65;;;1.52;;
34836;SDS011;21053;50.848;4.652;2023-06-22T07:10:04;1.77;;;1.63;;
34836;SDS011;21053;50.848;4.652;2023-06-22T07:12:32;2.50;;;1.83;;
34836;SDS011;21053;50.848;4.652;2023-06-22T07:15:04;1.38;;;1.27;;
34836;SDS011;21053;50.848;4.652;2023-06-22T07:20:03;3.33;;;1.80;;
34836;SDS011;21053;50.848;4.652;2023-06-22T07:25:07;2.78;;;2.25;;
34836;SDS011;21053;50.848;4.652;2023-06-22T07:27:43;4.65;;;1.90;;
34836;SDS011;21053;50.848;4.652;2023-06-22T07:30:11;1.60;;;1.30;;
34836;SDS011;21053;50.848;4.652;2023-06-22T07:32:39;1.35;;;1.25;;
34836;SDS011;21053;50.848;4.652;2023-06-22T07:35:06;1.58;;;1.20;;
34836;SDS011;21053;50.848;4.652;2023-06-22T07:37:32;1.20;;;1.10;;
34836;SDS011;21053;50.848;4.652;2023-06-22T07:40:00;3.72;;;1.80;;
34836;SDS011;21053;50.848;4.652;2023-06-22T07:42:28;1.75;;;1.40;;
34836;SDS011;21053;50.848;4.652;2023-06-22T07:44:59;1.20;;;1.10;;
34836;SDS011;21053;50.848;4.652;2023-06-22T07:47:29;1.42;;;1.33;;
34836;SDS011;21053;50.848;4.652;2023-06-22T07:49:57;1.33;;;1.23;;
34836;SDS011;21053;50.848;4.652;2023-06-22T07:54:56;3.05;;;1.25;;
34836;SDS011;21053;50.848;4.652;2023-06-22T08:02:34;1.63;;;1.50;;
34836;SDS011;21053;50.848;4.652;2023-06-22T08:05:02;2.38;;;1.90;;
34836;SDS011;21053;50.848;4.652;2023-06-22T08:07:31;4.30;;;2.20;;
34836;SDS011;21053;50.848;4.652;2023-06-22T08:09:59;3.78;;;1.58;;
34836;SDS011;21053;50.848;4.652;2023-06-22T08:12:27;1.48;;;1.38;;
34836;SDS011;21053;50.848;4.652;2023-06-22T08:17:25;1.27;;;1.17;;
34836;SDS011;21053;50.848;4.652;2023-06-22T08:19:53;1.77;;;1.63;;
34836;SDS011;21053;50.848;4.652;2023-06-22T08:22:22;1.42;;;1.33;;
34836;SDS011;21053;50.848;4.652;2023-06-22T08:24:49;1.88;;;1.35;;
34836;SDS011;21053;50.848;4.652;2023-06-22T08:27:15;1.20;;;1.15;;
34836;SDS011;21053;50.848;4.652;2023-06-22T08:29:42;1.45;;;1.33;;
34836;SDS011;21053;50.848;4.652;2023-06-22T08:32:08;1.38;;;1.27;;
34836;SDS011;21053;50.848;4.652;2023-06-22T08:37:08;0.98;;;0.98;;
34836;SDS011;21053;50.848;4.652;2023-06-22T08:39:36;1.80;;;1.23;;
34836;SDS011;21053;50.848;4.652;2023-06-22T08:42:02;1.20;;;1.10;;
34836;SDS011;21053;50.848;4.652;2023-06-22T08:44:28;1.08;;;1.08;;
34836;SDS011;21053;50.848;4.652;2023-06-22T08:46:53;3.70;;;1.70;;
34836;SDS011;21053;50.848;4.652;2023-06-22T08:49:19;1.02;;;0.93;;
34836;SDS011;21053;50.848;4.652;2023-06-22T08:51:45;1.15;;;1.00;;
34836;SDS011;21053;50.848;4.652;2023-06-22T08:54:13;1.40;;;1.08;;
34836;SDS011;21053;50.848;4.652;2023-06-22T08:56:39;0.95;;;0.88;;
34836;SDS011;21053;50.848;4.652;2023-06-22T09:01:37;1.00;;;1.00;;
34836;SDS011;21053;50.848;4.652;2023-06-22T09:04:05;1.00;;;0.90;;
34836;SDS011;21053;50.848;4.652;2023-06-22T09:06:46;1.95;;;1.42;;
34836;SDS011;21053;50.848;4.652;2023-06-22T09:09:12;1.02;;;1.00;;
34836;SDS011;21053;50.848;4.652;2023-06-22T09:11:40;2.58;;;1.27;;
34836;SDS011;21053;50.848;4.652;2023-06-22T09:14:06;0.90;;;0.90;;
34836;SDS011;21053;50.848;4.652;2023-06-22T09:16:34;1.52;;;1.42;;
34836;SDS011;21053;50.848;4.652;2023-06-22T09:19:02;1.70;;;1.15;;
34836;SDS011;21053;50.848;4.652;2023-06-22T09:21:27;0.70;;;0.70;;
34836;SDS011;21053;50.848;4.652;2023-06-22T09:23:55;0.90;;;0.90;;
34836;SDS011;21053;50.848;4.652;2023-06-22T09:26:21;0.93;;;0.93;;
34836;SDS011;21053;50.848;4.652;2023-06-22T09:28:51;1.98;;;1.42;;
34836;SDS011;21053;50.848;4.652;2023-06-22T09:31:18;0.93;;;0.93;;
34836;SDS011;21053;50.848;4.652;2023-06-22T09:33:53;1.58;;;1.48;;
34836;SDS011;21053;50.848;4.652;2023-06-22T09:36:21;2.35;;;1.55;;
34836;SDS011;21053;50.848;4.652;2023-06-22T09:38:48;1.23;;;1.13;;
34836;SDS011;21053;50.848;4.652;2023-06-22T09:41:20;3.30;;;1.70;;
34836;SDS011;21053;50.848;4.652;2023-06-22T09:43:46;1.73;;;1.63;;
34836;SDS011;21053;50.848;4.652;2023-06-22T09:46:14;1.33;;;1.23;;
34836;SDS011;21053;50.848;4.652;2023-06-22T09:48:42;1.15;;;1.05;;
34836;SDS011;21053;50.848;4.652;2023-06-22T09:51:08;5.10;;;1.70;;
34836;SDS011;21053;50.848;4.652;2023-06-22T09:53:37;1.48;;;1.10;;
34836;SDS011;21053;50.848;4.652;2023-06-22T09:56:06;4.50;;;1.17;;
34836;SDS011;21053;50.848;4.652;2023-06-22T10:10:42;1.73;;;1.63;;
34836;SDS011;21053;50.848;4.652;2023-06-22T10:13:17;3.07;;;1.60;;
34836;SDS011;21053;50.848;4.652;2023-06-22T10:18:18;1.48;;;1.38;;
34836;SDS011;21053;50.848;4.652;2023-06-22T10:20:55;2.50;;;1.95;;
34836;SDS011;21053;50.848;4.652;2023-06-22T10:23:23;9.25;;;1.98;;
34836;SDS011;21053;50.848;4.652;2023-06-22T10:25:51;2.15;;;1.05;;
34836;SDS011;21053;50.848;4.652;2023-06-22T10:28:17;1.67;;;1.40;;
34836;SDS011;21053;50.848;4.652;2023-06-22T10:30:46;1.77;;;1.67;;
34836;SDS011;21053;50.848;4.652;2023-06-22T10:33:14;5.88;;;2.08;;
34836;SDS011;21053;50.848;4.652;2023-06-22T10:35:43;2.33;;;1.58;;
34836;SDS011;21053;50.848;4.652;2023-06-22T10:38:11;2.15;;;1.85;;
34836;SDS011;21053;50.848;4.652;2023-06-22T10:40:39;1.70;;;1.60;;
34836;SDS011;21053;50.848;4.652;2023-06-22T10:43:07;7.72;;;2.58;;
34836;SDS011;21053;50.848;4.652;2023-06-22T10:45:33;1.88;;;1.77;;
34836;SDS011;21053;50.848;4.652;2023-06-22T10:48:01;4.40;;;3.05;;
34836;SDS011;21053;50.848;4.652;2023-06-22T10:50:29;4.82;;;3.03;;
34836;SDS011;21053;50.848;4.652;2023-06-22T10:55:27;3.90;;;2.10;;
34836;SDS011;21053;50.848;4.652;2023-06-22T11:00:22;2.67;;;2.28;;
34836;SDS011;21053;50.848;4.652;2023-06-22T11:05:16;3.80;;;2.30;;
34836;SDS011;21053;50.848;4.652;2023-06-22T11:07:43;2.60;;;2.13;;
34836;SDS011;21053;50.848;4.652;2023-06-22T11:10:15;3.67;;;2.55;;
34836;SDS011;21053;50.848;4.652;2023-06-22T11:12:44;2.95;;;2.40;;
34836;SDS011;21053;50.848;4.652;2023-06-22T11:15:11;2.22;;;1.80;;
34836;SDS011;21053;50.848;4.652;2023-06-22T11:17:37;3.30;;;2.55;;
34836;SDS011;21053;50.848;4.652;2023-06-22T11:20:03;4.57;;;2.75;;
34836;SDS011;21053;50.848;4.652;2023-06-22T11:22:40;3.40;;;2.35;;
34836;SDS011;21053;50.848;4.652;2023-06-22T11:25:09;2.22;;;1.98;;
34836;SDS011;21053;50.848;4.652;2023-06-22T11:27:38;7.32;;;2.70;;
34836;SDS011;21053;50.848;4.652;2023-06-22T11:30:04;3.33;;;2.53;;
34836;SDS011;21053;50.848;4.652;2023-06-22T11:32:31;2.78;;;2.38;;
34836;SDS011;21053;50.848;4.652;2023-06-22T11:34:59;7.57;;;2.88;;
34836;SDS011;21053;50.848;4.652;2023-06-22T11:37:26;4.55;;;3.20;;
34836;SDS011;21053;50.848;4.652;2023-06-22T11:39:54;3.35;;;2.63;;
34836;SDS011;21053;50.848;4.652;2023-06-22T11:42:22;5.47;;;2.30;;
34836;SDS011;21053;50.848;4.652;2023-06-22T11:44:50;6.75;;;3.03;;
34836;SDS011;21053;50.848;4.652;2023-06-22T11:47:18;9.07;;;3.75;;
34836;SDS011;21053;50.848;4.652;2023-06-22T11:49:47;8.50;;;4.15;;
34836;SDS011;21053;50.848;4.652;2023-06-22T11:52:16;4.55;;;3.08;;
34836;SDS011;21053;50.848;4.652;2023-06-22T11:54:44;5.00;;;3.33;;
34836;SDS011;21053;50.848;4.652;2023-06-22T11:57:10;4.80;;;3.38;;
34836;SDS011;21053;50.848;4.652;2023-06-22T11:59:38;4.47;;;2.90;;
34836;SDS011;21053;50.848;4.652;2023-06-22T12:02:07;3.92;;;2.90;;
34836;SDS011;21053;50.848;4.652;2023-06-22T12:04:40;6.57;;;3.67;;
34836;SDS011;21053;50.848;4.652;2023-06-22T12:07:08;11.38;;;5.50;;
34836;SDS011;21053;50.848;4.652;2023-06-22T12:09:34;5.32;;;3.95;;
34836;SDS011;21053;50.848;4.652;2023-06-22T12:12:01;3.50;;;2.90;;
34836;SDS011;21053;50.848;4.652;2023-06-22T12:14:27;5.05;;;3.72;;
34836;SDS011;21053;50.848;4.652;2023-06-22T12:16:55;5.93;;;4.55;;
34836;SDS011;21053;50.848;4.652;2023-06-22T12:21:51;6.25;;;3.47;;
34836;SDS011;21053;50.848;4.652;2023-06-22T12:26:49;4.50;;;3.78;;
34836;SDS011;21053;50.848;4.652;2023-06-22T12:29:21;6.22;;;4.53;;
34836;SDS011;21053;50.848;4.652;2023-06-22T12:31:46;6.80;;;3.55;;
34836;SDS011;21053;50.848;4.652;2023-06-22T12:36:43;8.55;;;4.53;;
34836;SDS011;21053;50.848;4.652;2023-06-22T12:41:46;4.63;;;3.08;;
34836;SDS011;21053;50.848;4.652;2023-06-22T12:44:13;4.88;;;3.53;;
34836;SDS011;21053;50.848;4.652;2023-06-22T12:46:38;8.40;;;4.25;;
34836;SDS011;21053;50.848;4.652;2023-06-22T12:49:05;5.40;;;2.92;;
34836;SDS011;21053;50.848;4.652;2023-06-22T12:51:39;4.03;;;3.55;;
34836;SDS011;21053;50.848;4.652;2023-06-22T12:54:09;5.93;;;4.00;;
34836;SDS011;21053;50.848;4.652;2023-06-22T12:59:06;9.05;;;2.72;;
34836;SDS011;21053;50.848;4.652;2023-06-22T13:01:38;6.28;;;3.22;;
34836;SDS011;21053;50.848;4.652;2023-06-22T13:04:05;6.53;;;3.03;;
34836;SDS011;21053;50.848;4.652;2023-06-22T13:11:31;5.55;;;3.45;;
34836;SDS011;21053;50.848;4.652;2023-06-22T13:13:56;4.65;;;2.95;;
34836;SDS011;21053;50.848;4.652;2023-06-22T13:18:54;7.00;;;4.15;;
34836;SDS011;21053;50.848;4.652;2023-06-22T13:23:49;4.35;;;3.13;;
34836;SDS011;21053;50.848;4.652;2023-06-22T13:26:16;6.57;;;4.07;;
34836;SDS011;21053;50.848;4.652;2023-06-22T13:28:43;6.75;;;3.63;;
34836;SDS011;21053;50.848;4.652;2023-06-22T13:31:09;4.70;;;3.97;;
34836;SDS011;21053;50.848;4.652;2023-06-22T13:33:34;14.32;;;3.95;;
34836;SDS011;21053;50.848;4.652;2023-06-22T13:36:00;5.32;;;3.85;;
34836;SDS011;21053;50.848;4.652;2023-06-22T13:38:28;3.17;;;2.85;;
34836;SDS011;21053;50.848;4.652;2023-06-22T13:40:55;4.05;;;3.17;;
34836;SDS011;21053;50.848;4.652;2023-06-22T13:43:26;5.35;;;3.65;;
34836;SDS011;21053;50.848;4.652;2023-06-22T13:48:24;3.70;;;2.70;;
34836;SDS011;21053;50.848;4.652;2023-06-22T13:50:54;7.25;;;4.10;;
34836;SDS011;21053;50.848;4.652;2023-06-22T13:53:21;4.63;;;3.55;;
34836;SDS011;21053;50.848;4.652;2023-06-22T13:55:49;6.72;;;4.78;;
34836;SDS011;21053;50.848;4.652;2023-06-22T14:03:20;4.47;;;3.40;;
34836;SDS011;21053;50.848;4.652;2023-06-22T14:05:47;5.18;;;3.35;;
34836;SDS011;21053;50.848;4.652;2023-06-22T14:08:14;11.25;;;4.40;;
34836;SDS011;21053;50.848;4.652;2023-06-22T14:10:46;10.27;;;4.13;;
34836;SDS011;21053;50.848;4.652;2023-06-22T14:13:13;7.85;;;4.13;;
34836;SDS011;21053;50.848;4.652;2023-06-22T14:15:42;4.88;;;3.20;;
34836;SDS011;21053;50.848;4.652;2023-06-22T14:20:40;3.95;;;2.78;;
34836;SDS011;21053;50.848;4.652;2023-06-22T14:25:34;5.90;;;3.20;;
34836;SDS011;21053;50.848;4.652;2023-06-22T14:30:31;4.55;;;3.55;;
34836;SDS011;21053;50.848;4.652;2023-06-22T14:32:59;6.05;;;3.60;;
34836;SDS011;21053;50.848;4.652;2023-06-22T14:35:26;4.72;;;3.45;;
34836;SDS011;21053;50.848;4.652;2023-06-22T14:37:52;4.50;;;3.30;;
34836;SDS011;21053;50.848;4.652;2023-06-22T14:42:48;3.72;;;3.03;;
34836;SDS011;21053;50.848;4.652;2023-06-22T14:45:14;5.50;;;3.70;;
34836;SDS011;21053;50.848;4.652;2023-06-22T14:47:41;3.95;;;2.90;;
34836;SDS011;21053;50.848;4.652;2023-06-22T14:50:13;5.35;;;3.00;;
34836;SDS011;21053;50.848;4.652;2023-06-22T14:52:40;6.00;;;3.75;;
34836;SDS011;21053;50.848;4.652;2023-06-22T14:55:06;3.97;;;3.42;;
34836;SDS011;21053;50.848;4.652;2023-06-22T14:57:36;6.15;;;3.45;;
34836;SDS011;21053;50.848;4.652;2023-06-22T15:00:02;5.03;;;3.40;;
34836;SDS011;21053;50.848;4.652;2023-06-22T15:02:31;4.88;;;3.58;;
34836;SDS011;21053;50.848;4.652;2023-06-22T15:04:58;7.15;;;3.55;;
34836;SDS011;21053;50.848;4.652;2023-06-22T15:07:24;3.90;;;3.15;;
34836;SDS011;21053;50.848;4.652;2023-06-22T15:09:53;5.05;;;3.97;;
34836;SDS011;21053;50.848;4.652;2023-06-22T15:12:25;6.45;;;4.07;;
34836;SDS011;21053;50.848;4.652;2023-06-22T15:14:50;6.10;;;4.20;;
34836;SDS011;21053;50.848;4.652;2023-06-22T15:17:17;4.80;;;3.53;;
34836;SDS011;21053;50.848;4.652;2023-06-22T15:19:46;5.43;;;3.28;;
34836;SDS011;21053;50.848;4.652;2023-06-22T15:22:13;3.50;;;3.20;;
34836;SDS011;21053;50.848;4.652;2023-06-22T15:24:39;8.20;;;4.03;;
34836;SDS011;21053;50.848;4.652;2023-06-22T15:29:34;3.38;;;2.67;;
34836;SDS011;21053;50.848;4.652;2023-06-22T15:31:59;8.20;;;3.92;;
34836;SDS011;21053;50.848;4.652;2023-06-22T15:34:28;5.82;;;4.30;;
34836;SDS011;21053;50.848;4.652;2023-06-22T15:36:56;4.57;;;3.63;;
34836;SDS011;21053;50.848;4.652;2023-06-22T15:39:22;6.88;;;4.32;;
34836;SDS011;21053;50.848;4.652;2023-06-22T15:41:49;6.90;;;4.88;;
34836;SDS011;21053;50.848;4.652;2023-06-22T15:44:23;4.72;;;3.55;;
34836;SDS011;21053;50.848;4.652;2023-06-22T15:46:49;4.50;;;3.05;;
34836;SDS011;21053;50.848;4.652;2023-06-22T15:49:20;9.45;;;4.38;;
34836;SDS011;21053;50.848;4.652;2023-06-22T15:51:47;7.63;;;4.53;;
34836;SDS011;21053;50.848;4.652;2023-06-22T15:54:13;3.55;;;3.17;;
34836;SDS011;21053;50.848;4.652;2023-06-22T15:56:38;5.53;;;3.90;;
34836;SDS011;21053;50.848;4.652;2023-06-22T15:59:06;5.32;;;3.25;;
34836;SDS011;21053;50.848;4.652;2023-06-22T16:01:33;23.30;;;4.75;;
34836;SDS011;21053;50.848;4.652;2023-06-22T16:04:01;6.13;;;3.33;;
34836;SDS011;21053;50.848;4.652;2023-06-22T16:08:59;5.60;;;4.60;;
34836;SDS011;21053;50.848;4.652;2023-06-22T16:11:25;4.43;;;3.60;;
34836;SDS011;21053;50.848;4.652;2023-06-22T16:13:54;8.13;;;4.90;;
34836;SDS011;21053;50.848;4.652;2023-06-22T16:16:21;7.70;;;3.95;;
34836;SDS011;21053;50.848;4.652;2023-06-22T16:18:49;5.10;;;4.25;;
34836;SDS011;21053;50.848;4.652;2023-06-22T16:23:43;7.63;;;4.95;;
34836;SDS011;21053;50.848;4.652;2023-06-22T16:26:09;10.05;;;4.85;;
34836;SDS011;21053;50.848;4.652;2023-06-22T16:28:34;6.80;;;3.30;;
34836;SDS011;21053;50.848;4.652;2023-06-22T16:31:00;7.07;;;3.78;;
34836;SDS011;21053;50.848;4.652;2023-06-22T16:33:26;7.43;;;3.72;;
34836;SDS011;21053;50.848;4.652;2023-06-22T16:38:23;4.60;;;3.70;;
34836;SDS011;21053;50.848;4.652;2023-06-22T16:43:21;7.28;;;4.07;;
34836;SDS011;21053;50.848;4.652;2023-06-22T16:45:47;8.63;;;4.43;;
34836;SDS011;21053;50.848;4.652;2023-06-22T16:48:13;5.65;;;3.42;;
34836;SDS011;21053;50.848;4.652;2023-06-22T16:50:39;8.18;;;3.22;;
34836;SDS011;21053;50.848;4.652;2023-06-22T16:53:07;7.57;;;3.85;;
34836;SDS011;21053;50.848;4.652;2023-06-22T16:58:03;4.38;;;2.97;;
34836;SDS011;21053;50.848;4.652;2023-06-22T17:00:29;4.43;;;2.95;;
34836;SDS011;21053;50.848;4.652;2023-06-22T17:02:55;5.20;;;3.80;;
34836;SDS011;21053;50.848;4.652;2023-06-22T17:08:29;9.73;;;3.83;;
34836;SDS011;21053;50.848;4.652;2023-06-22T17:11:00;9.82;;;5.22;;
34836;SDS011;21053;50.848;4.652;2023-06-22T17:18:27;5.63;;;4.00;;
34836;SDS011;21053;50.848;4.652;2023-06-22T17:20:58;11.55;;;4.78;;
34836;SDS011;21053;50.848;4.652;2023-06-22T17:23:26;5.78;;;3.90;;
34836;SDS011;21053;50.848;4.652;2023-06-22T17:25:52;12.50;;;5.70;;
34836;SDS011;21053;50.848;4.652;2023-06-22T17:28:20;6.00;;;3.95;;
34836;SDS011;21053;50.848;4.652;2023-06-22T17:30:46;6.97;;;4.60;;
34836;SDS011;21053;50.848;4.652;2023-06-22T17:33:34;7.13;;;5.28;;
34836;SDS011;21053;50.848;4.652;2023-06-22T17:35:59;6.68;;;5.07;;
34836;SDS011;21053;50.848;4.652;2023-06-22T17:38:30;10.50;;;6.20;;
34836;SDS011;21053;50.848;4.652;2023-06-22T17:41:05;6.80;;;5.13;;
34836;SDS011;21053;50.848;4.652;2023-06-22T17:43:31;6.68;;;4.72;;
34836;SDS011;21053;50.848;4.652;2023-06-22T17:46:01;7.60;;;5.22;;
34836;SDS011;21053;50.848;4.652;2023-06-22T17:48:29;7.85;;;5.68;;
34836;SDS011;21053;50.848;4.652;2023-06-22T17:50:59;10.23;;;4.65;;
34836;SDS011;21053;50.848;4.652;2023-06-22T17:53:29;12.98;;;5.35;;
34836;SDS011;21053;50.848;4.652;2023-06-22T17:55:56;9.45;;;4.57;;
34836;SDS011;21053;50.848;4.652;2023-06-22T17:58:27;5.13;;;3.65;;
34836;SDS011;21053;50.848;4.652;2023-06-22T18:00:53;5.95;;;4.03;;